Terminal Aerodrome Forecast
Issued by NWS

Home | Current Version | Previous Version | Text Only | Print | Product List | Glossary Off
Versions: 1 2 3 4 5 6 7 8 9 10 11 12 13 14 15 16 17

000
FTUS43 KBIS 261133
TAFJMS
TAF
KJMS 261133Z 2612/2712 01015G23KT P6SM VCSH SCT008 OVC010
     FM270000 01013G21KT P6SM BKN010
     FM270400 01009KT P6SM BKN015
     FM271100 36008KT P6SM SCT015=

USA.gov is the U.S. government's official web portal to all federal, state and local government web resources and services.